createdAt,value
2022-10-25T00:01:45.272Z,21.87
2022-10-25T00:04:13.429Z,23.33
2022-10-25T00:06:41.687Z,23.80
2022-10-25T00:09:09.876Z,25.57
2022-10-25T00:11:37.864Z,22.23
2022-10-25T00:14:07.799Z,21.57
2022-10-25T00:16:38.803Z,22.77
2022-10-25T00:19:07.445Z,24.60
2022-10-25T00:21:35.449Z,22.67
2022-10-25T00:24:04.796Z,20.47
2022-10-25T00:26:32.774Z,21.57
2022-10-25T00:29:01.283Z,20.87
2022-10-25T00:31:29.305Z,20.60
2022-10-25T00:33:58.642Z,20.00
2022-10-25T00:36:28.335Z,19.37
2022-10-25T00:38:59.509Z,18.63
2022-10-25T00:41:31.016Z,18.70
2022-10-25T00:44:37.703Z,17.70
2022-10-25T00:47:10.492Z,18.17
2022-10-25T00:49:40.004Z,17.50
2022-10-25T00:52:09.090Z,18.73
2022-10-25T00:54:41.609Z,17.30
2022-10-25T00:57:14.169Z,17.37
2022-10-25T00:59:42.356Z,18.30
2022-10-25T01:02:10.783Z,17.33
2022-10-25T01:04:40.776Z,19.17
2022-10-25T01:07:10.408Z,17.80
2022-10-25T01:09:40.543Z,18.80
2022-10-25T01:12:08.593Z,20.87
2022-10-25T01:14:39.056Z,18.70
2022-10-25T01:17:14.806Z,19.87
2022-10-25T01:20:18.643Z,18.67
2022-10-25T01:22:52.434Z,18.37
2022-10-25T01:25:42.082Z,20.20
2022-10-25T01:28:15.529Z,18.77
2022-10-25T01:31:12.655Z,19.53
2022-10-25T01:33:47.294Z,19.23
2022-10-25T01:36:20.837Z,19.87
2022-10-25T01:38:51.814Z,19.73
2022-10-25T01:41:28.244Z,19.77
2022-10-25T01:44:12.468Z,20.03
2022-10-25T01:46:46.401Z,20.83
2022-10-25T01:49:20.195Z,19.60
2022-10-25T01:51:48.158Z,21.63
2022-10-25T01:54:21.731Z,20.83
2022-10-25T01:57:02.135Z,20.70
2022-10-25T01:59:51.570Z,20.33
2022-10-25T02:02:27.385Z,20.07
2022-10-25T02:05:04.386Z,21.07
2022-10-25T02:07:38.897Z,20.93
2022-10-25T02:10:11.305Z,24.83
2022-10-25T02:12:47.784Z,21.47
2022-10-25T02:15:19.836Z,23.20
2022-10-25T02:17:55.631Z,21.37
2022-10-25T02:20:26.485Z,22.23
2022-10-25T02:22:55.870Z,21.77
2022-10-25T02:25:23.917Z,22.63
2022-10-25T02:27:54.989Z,23.27
2022-10-25T02:30:23.118Z,28.23
2022-10-25T02:32:53.117Z,24.20
2022-10-25T02:35:21.548Z,23.67
2022-10-25T02:37:49.669Z,24.30
2022-10-25T02:40:18.292Z,23.67
2022-10-25T02:42:46.296Z,22.90
2022-10-25T02:45:14.481Z,23.67
2022-10-25T02:47:42.491Z,21.13
2022-10-25T02:50:12.249Z,21.73
2022-10-25T02:52:40.318Z,22.40
2022-10-25T02:55:09.021Z,22.93
2022-10-25T02:57:40.282Z,23.70
2022-10-25T03:00:09.777Z,22.07
2022-10-25T03:02:37.790Z,22.03
2022-10-25T03:05:06.337Z,19.10
2022-10-25T03:07:35.698Z,18.90
2022-10-25T03:10:03.692Z,19.50
2022-10-25T03:12:31.928Z,20.53
2022-10-25T03:14:59.930Z,17.83
2022-10-25T03:17:27.946Z,18.50
2022-10-25T03:19:55.908Z,18.83
2022-10-25T03:22:23.888Z,17.50
2022-10-25T03:24:53.270Z,19.70
2022-10-25T03:27:21.262Z,18.27
2022-10-25T03:29:49.228Z,19.73
2022-10-25T03:32:17.235Z,19.53
2022-10-25T03:34:45.226Z,18.37
2022-10-25T03:37:13.206Z,16.53
2022-10-25T03:39:41.172Z,18.17
2022-10-25T03:42:12.926Z,16.97
2022-10-25T03:44:40.912Z,17.27
2022-10-25T03:47:08.957Z,15.67
2022-10-25T03:49:36.943Z,15.87
2022-10-25T03:52:06.105Z,15.60
2022-10-25T03:54:36.606Z,16.47
2022-10-25T03:57:05.488Z,16.27
2022-10-25T03:59:34.844Z,16.73
2022-10-25T04:02:03.072Z,17.80
2022-10-25T04:04:31.169Z,16.50
2022-10-25T04:06:59.397Z,18.43
2022-10-25T04:09:27.393Z,17.10
2022-10-25T04:11:55.385Z,19.00
2022-10-25T04:14:23.873Z,17.53
2022-10-25T04:16:53.245Z,21.13
2022-10-25T04:19:21.262Z,21.00
2022-10-25T04:21:49.508Z,21.63
2022-10-25T04:24:17.652Z,24.80
2022-10-25T04:26:45.684Z,24.10
2022-10-25T04:29:13.845Z,27.30
2022-10-25T04:31:41.842Z,28.87
2022-10-25T04:34:11.266Z,27.40
2022-10-25T04:36:39.828Z,26.07
2022-10-25T04:39:07.813Z,27.10
2022-10-25T04:41:35.849Z,29.57
2022-10-25T04:44:03.857Z,27.30
2022-10-25T04:46:31.855Z,29.63
2022-10-25T04:49:01.061Z,29.90
2022-10-25T04:51:30.406Z,30.90
2022-10-25T04:53:58.402Z,29.07
2022-10-25T04:56:26.397Z,29.87
2022-10-25T04:58:54.364Z,26.93
2022-10-25T05:01:22.716Z,26.10
2022-10-25T05:03:50.725Z,27.80
2022-10-25T05:06:20.868Z,29.83
2022-10-25T05:08:51.587Z,27.30
2022-10-25T05:11:20.891Z,29.43
2022-10-25T05:13:49.077Z,26.70
2022-10-25T05:16:21.649Z,28.07
2022-10-25T05:18:50.056Z,30.37
2022-10-25T05:21:18.958Z,27.57
2022-10-25T05:23:47.176Z,25.83
2022-10-25T05:26:18.477Z,27.47
2022-10-25T05:28:48.295Z,27.60
2022-10-25T05:31:17.678Z,25.33
2022-10-25T05:33:46.721Z,24.40
2022-10-25T05:36:15.896Z,24.13
2022-10-25T05:38:44.254Z,24.73
2022-10-25T05:41:13.444Z,23.23
2022-10-25T05:43:43.358Z,27.90
2022-10-25T05:46:13.804Z,22.73
2022-10-25T05:48:48.416Z,23.37
2022-10-25T05:51:33.816Z,23.10
2022-10-25T05:54:05.808Z,20.93
2022-10-25T05:56:35.031Z,21.33
2022-10-25T05:59:07.598Z,22.20
2022-10-25T06:01:36.345Z,23.70
2022-10-25T06:04:04.481Z,21.07
2022-10-25T06:06:32.738Z,21.37
2022-10-25T06:09:02.073Z,19.10
2022-10-25T06:11:33.297Z,18.70
2022-10-25T06:14:01.333Z,18.10
2022-10-25T06:16:30.888Z,17.33
2022-10-25T06:18:59.017Z,19.77
2022-10-25T06:21:28.831Z,17.73
2022-10-25T06:23:57.413Z,18.97
2022-10-25T06:26:27.732Z,17.63
2022-10-25T06:28:57.731Z,18.67
2022-10-25T06:31:26.262Z,19.00
2022-10-25T06:33:55.725Z,20.77
2022-10-25T06:36:26.750Z,21.33
2022-10-25T06:38:54.823Z,19.63
2022-10-25T06:41:27.607Z,20.43
2022-10-25T06:43:56.286Z,24.13
2022-10-25T06:46:26.685Z,25.37
2022-10-25T06:48:57.847Z,22.80
2022-10-25T06:51:27.787Z,21.43
2022-10-25T06:53:56.641Z,19.87
2022-10-25T06:56:25.487Z,18.17
2022-10-25T06:58:53.834Z,15.67
2022-10-25T07:01:23.389Z,14.83
2022-10-25T07:03:53.576Z,13.77
2022-10-25T07:06:25.941Z,12.93
2022-10-25T07:08:56.019Z,13.27
2022-10-25T07:11:25.224Z,10.67
2022-10-25T07:13:53.493Z,10.80
2022-10-25T07:16:22.709Z,10.60
2022-10-25T07:18:50.797Z,11.93
2022-10-25T07:21:21.482Z,11.23
2022-10-25T07:23:51.694Z,10.00
2022-10-25T07:26:22.805Z,11.20
2022-10-25T07:28:52.500Z,9.53
2022-10-25T07:31:22.629Z,9.80
2022-10-25T07:33:51.615Z,10.63
2022-10-25T07:36:19.851Z,10.30
2022-10-25T07:38:47.996Z,10.57
2022-10-25T07:41:17.671Z,10.07
2022-10-25T07:43:46.278Z,11.27
2022-10-25T07:46:14.288Z,11.97
2022-10-25T07:48:42.423Z,9.27
2022-10-25T07:51:13.737Z,9.57
2022-10-25T07:53:42.270Z,7.90
2022-10-25T07:56:16.159Z,9.00
2022-10-25T07:58:48.376Z,8.33
2022-10-25T08:01:20.661Z,7.10
2022-10-25T08:03:48.916Z,8.40
2022-10-25T08:06:16.933Z,10.03
2022-10-25T08:08:45.175Z,6.37
2022-10-25T08:11:13.384Z,6.10
2022-10-25T08:13:41.849Z,6.07
2022-10-25T08:16:11.187Z,7.17
2022-10-25T08:18:39.397Z,5.60
2022-10-25T08:21:07.418Z,5.17
2022-10-25T08:23:35.499Z,7.10
2022-10-25T08:26:04.062Z,4.47
2022-10-25T08:28:32.353Z,5.10
2022-10-25T08:31:02.185Z,6.27
2022-10-25T08:33:32.167Z,4.70
2022-10-25T08:36:01.948Z,4.57
2022-10-25T08:38:30.201Z,5.43
2022-10-25T08:41:04.354Z,6.13
2022-10-25T08:43:56.088Z,3.97
2022-10-25T08:46:29.363Z,5.43
2022-10-25T08:49:07.753Z,5.20
2022-10-25T08:51:39.536Z,4.77
2022-10-25T08:54:22.207Z,5.47
2022-10-25T08:57:10.527Z,4.77
2022-10-25T08:59:43.592Z,7.40
2022-10-25T09:02:18.406Z,6.07
2022-10-25T09:04:47.864Z,5.67
2022-10-25T09:07:41.894Z,5.23
2022-10-25T09:10:20.403Z,4.33
2022-10-25T09:12:57.169Z,5.73
2022-10-25T09:15:40.473Z,4.80
2022-10-25T09:18:16.709Z,4.43
2022-10-25T09:20:51.387Z,4.57
2022-10-25T09:23:28.949Z,3.60
2022-10-25T09:26:05.202Z,4.83
2022-10-25T09:28:52.389Z,4.40
2022-10-25T09:31:24.777Z,5.30
2022-10-25T09:34:01.464Z,4.00
2022-10-25T09:36:38.081Z,6.17
2022-10-25T09:39:15.665Z,3.63
2022-10-25T09:41:47.689Z,5.63
2022-10-25T09:44:24.289Z,5.13
2022-10-25T09:46:55.728Z,5.87
2022-10-25T09:49:29.992Z,4.87
2022-10-25T09:52:08.140Z,3.53
2022-10-25T09:54:43.275Z,3.60
2022-10-25T09:57:11.303Z,3.17
2022-10-25T09:59:39.604Z,4.10
2022-10-25T10:02:11.276Z,4.13
2022-10-25T10:04:40.349Z,4.00
2022-10-25T10:07:17.182Z,4.70
2022-10-25T10:09:46.773Z,3.70
2022-10-25T10:12:21.613Z,4.20
2022-10-25T10:14:57.267Z,3.83
2022-10-25T10:17:26.071Z,4.43
2022-10-25T10:20:13.797Z,5.60
2022-10-25T10:25:26.585Z,3.97
2022-10-25T10:27:57.681Z,3.47
2022-10-25T10:30:28.792Z,4.03
2022-10-25T10:33:00.295Z,3.43
2022-10-25T10:35:31.542Z,3.87
2022-10-25T10:38:23.661Z,3.73
2022-10-25T10:40:53.450Z,4.43
2022-10-25T10:43:29.180Z,4.37
2022-10-25T10:46:03.013Z,3.27
2022-10-25T10:48:40.395Z,3.40
2022-10-25T10:51:31.728Z,3.90
2022-10-25T10:54:22.989Z,3.63
2022-10-25T10:56:58.611Z,3.20
2022-10-25T10:59:39.343Z,4.03
2022-10-25T11:02:25.399Z,3.67
2022-10-25T11:04:57.065Z,4.70
2022-10-25T11:07:34.531Z,3.50
2022-10-25T11:10:23.107Z,3.83
2022-10-25T11:13:10.889Z,5.83
2022-10-25T11:16:02.548Z,5.10
2022-10-25T11:18:43.000Z,4.50
2022-10-25T11:21:21.191Z,4.70
2022-10-25T11:24:02.769Z,6.37
2022-10-25T11:26:44.989Z,4.37
2022-10-25T11:29:18.001Z,6.80
2022-10-25T11:31:58.029Z,4.57
2022-10-25T11:34:35.573Z,3.83
2022-10-25T11:37:17.989Z,5.00
2022-10-25T11:40:00.981Z,6.47
2022-10-25T11:42:59.421Z,3.77
2022-10-25T11:45:39.191Z,3.93
2022-10-25T11:48:25.183Z,3.73
2022-10-25T11:51:00.255Z,5.57
2022-10-25T11:53:52.522Z,4.17
2022-10-25T11:56:28.373Z,5.10
2022-10-25T11:59:09.069Z,4.77
2022-10-25T12:01:58.321Z,3.70
2022-10-25T12:04:50.112Z,4.23
2022-10-25T12:07:23.338Z,4.93
2022-10-25T12:10:04.142Z,5.13
2022-10-25T12:12:41.941Z,4.03
2022-10-25T12:15:18.215Z,5.50
2022-10-25T12:17:46.670Z,3.97
2022-10-25T12:20:22.757Z,6.03
2022-10-25T12:22:54.337Z,7.10
2022-10-25T12:25:26.814Z,4.70
2022-10-25T12:28:03.767Z,3.87
2022-10-25T12:30:35.542Z,4.63
2022-10-25T12:33:14.192Z,4.83
2022-10-25T12:35:49.285Z,4.97
2022-10-25T12:38:24.801Z,4.40
2022-10-25T12:40:57.578Z,5.27
2022-10-25T12:43:33.295Z,5.73
2022-10-25T12:46:17.777Z,5.73
2022-10-25T12:49:21.378Z,5.33
2022-10-25T12:52:07.814Z,4.43
2022-10-25T12:54:48.706Z,5.70
2022-10-25T12:57:25.833Z,7.10
2022-10-25T13:00:03.816Z,5.77
2022-10-25T13:03:22.694Z,4.97
2022-10-25T13:06:25.267Z,6.33
2022-10-25T13:08:53.966Z,5.33
2022-10-25T13:11:34.170Z,4.73
2022-10-25T13:14:03.252Z,7.60
2022-10-25T13:16:33.311Z,5.30
2022-10-25T13:19:53.427Z,5.57
2022-10-25T13:22:37.814Z,4.80
2022-10-25T13:25:17.017Z,7.47
2022-10-25T13:28:14.684Z,6.37
2022-10-25T13:30:42.962Z,4.43
2022-10-25T13:33:33.494Z,7.30
2022-10-25T13:36:13.954Z,5.57
2022-10-25T13:38:43.396Z,5.90
2022-10-25T13:41:17.320Z,6.87
2022-10-25T13:44:01.758Z,5.27
2022-10-25T13:46:39.210Z,6.23
2022-10-25T13:49:29.616Z,6.27
2022-10-25T13:51:58.801Z,7.60
2022-10-25T13:54:38.097Z,6.77
2022-10-25T13:57:26.110Z,7.90
2022-10-25T14:00:02.331Z,6.90
2022-10-25T14:02:30.461Z,5.97
2022-10-25T14:04:58.412Z,6.43
2022-10-25T14:07:46.318Z,4.53
2022-10-25T14:10:21.196Z,6.13
2022-10-25T14:12:53.516Z,4.90
2022-10-25T14:15:36.620Z,4.93
2022-10-25T14:18:11.656Z,6.23
2022-10-25T14:20:42.489Z,4.77
2022-10-25T14:23:17.189Z,5.13
2022-10-25T14:25:53.632Z,7.07
2022-10-25T14:28:26.627Z,6.17
2022-10-25T14:30:57.537Z,5.03
2022-10-25T14:33:30.375Z,6.23
2022-10-25T14:36:07.758Z,6.17
2022-10-25T14:38:49.637Z,6.17
2022-10-25T14:41:22.925Z,5.20
2022-10-25T14:43:50.932Z,4.97
2022-10-25T14:46:21.056Z,5.97
2022-10-25T14:48:50.626Z,5.77
2022-10-25T14:51:21.849Z,8.73
2022-10-25T14:53:56.913Z,5.13
2022-10-25T14:56:30.148Z,6.83
2022-10-25T14:58:58.637Z,5.63
2022-10-25T15:01:27.118Z,5.43
2022-10-25T15:03:59.245Z,5.07
2022-10-25T15:06:30.726Z,6.67
2022-10-25T15:09:30.038Z,9.00
2022-10-25T15:12:16.830Z,5.10
2022-10-25T15:14:46.539Z,5.20
2022-10-25T15:17:19.073Z,5.97
2022-10-25T15:20:06.086Z,5.90
2022-10-25T15:22:42.480Z,7.00
2022-10-25T15:25:29.582Z,6.47
2022-10-25T15:28:10.821Z,6.90
2022-10-25T15:30:42.803Z,5.67
2022-10-25T15:33:12.814Z,6.97
2022-10-25T15:35:47.654Z,7.33
2022-10-25T15:38:17.359Z,7.13
2022-10-25T15:40:45.416Z,5.67
2022-10-25T15:43:14.838Z,6.93
2022-10-25T15:45:43.966Z,6.93
2022-10-25T15:48:15.743Z,7.70
2022-10-25T15:50:47.767Z,6.17
2022-10-25T15:53:15.771Z,5.70
2022-10-25T15:55:44.126Z,7.07
2022-10-25T15:58:12.146Z,5.77
2022-10-25T16:00:42.004Z,6.57
2022-10-25T16:03:13.575Z,6.10
2022-10-25T16:05:41.541Z,8.23
2022-10-25T16:08:11.176Z,7.10
2022-10-25T16:10:39.703Z,7.30
2022-10-25T16:13:13.446Z,8.60
2022-10-25T16:15:44.279Z,8.00
2022-10-25T16:18:12.560Z,8.77
2022-10-25T16:20:40.593Z,10.30
2022-10-25T16:23:08.587Z,9.47
2022-10-25T16:25:36.764Z,11.13
2022-10-25T16:28:05.561Z,9.33
2022-10-25T16:30:36.513Z,9.63
2022-10-25T16:33:07.710Z,9.10
2022-10-25T16:35:35.765Z,9.90
2022-10-25T16:38:04.372Z,10.00
2022-10-25T16:40:33.785Z,11.47
2022-10-25T16:43:01.998Z,10.17
2022-10-25T16:45:31.810Z,13.50
2022-10-25T16:48:00.702Z,12.50
2022-10-25T16:50:32.610Z,11.10
2022-10-25T16:53:02.447Z,11.13
2022-10-25T16:55:31.590Z,13.33
2022-10-25T16:58:01.175Z,11.13
2022-10-25T17:00:32.071Z,11.50
2022-10-25T17:03:00.140Z,12.07
2022-10-25T17:05:32.587Z,12.07
2022-10-25T17:08:02.970Z,11.80
2022-10-25T17:10:32.219Z,13.33
2022-10-25T17:13:03.394Z,13.27
2022-10-25T17:15:32.092Z,12.90
2022-10-25T17:18:00.316Z,16.17
2022-10-25T17:20:29.983Z,14.80
2022-10-25T17:22:58.066Z,17.70
2022-10-25T17:25:26.172Z,17.20
2022-10-25T17:27:54.993Z,19.70
2022-10-25T17:30:25.907Z,18.50
2022-10-25T17:32:53.890Z,19.47
2022-10-25T17:35:28.595Z,21.57
2022-10-25T17:37:59.026Z,21.37
2022-10-25T17:40:27.066Z,24.10
2022-10-25T17:42:55.565Z,22.03
2022-10-25T17:45:24.993Z,20.07
2022-10-25T17:47:52.978Z,19.70
2022-10-25T17:50:22.198Z,19.47
2022-10-25T17:52:51.386Z,19.27
2022-10-25T17:55:21.098Z,19.57
2022-10-25T17:57:50.109Z,18.93
2022-10-25T18:00:18.932Z,20.73
2022-10-25T18:02:50.593Z,20.13
2022-10-25T18:05:21.914Z,20.57
2022-10-25T18:07:50.538Z,19.23
2022-10-25T18:10:20.572Z,17.60
2022-10-25T18:12:49.114Z,18.17
2022-10-25T18:15:17.936Z,20.03
2022-10-25T18:17:46.930Z,18.63
2022-10-25T18:20:15.645Z,20.37
2022-10-25T18:22:43.950Z,21.17
2022-10-25T18:25:12.042Z,23.87
2022-10-25T18:27:41.684Z,24.33
2022-10-25T18:30:11.332Z,25.77
2022-10-25T18:32:39.393Z,29.63
2022-10-25T18:35:08.073Z,30.30
2022-10-25T18:37:36.153Z,28.60
2022-10-25T18:40:08.644Z,32.30
2022-10-25T18:42:36.882Z,29.70
2022-10-25T18:45:07.704Z,28.17
2022-10-25T18:47:35.757Z,28.00
2022-10-25T18:50:03.862Z,28.33
2022-10-25T18:52:31.871Z,29.37
2022-10-25T18:54:59.846Z,31.03
2022-10-25T18:57:29.860Z,28.43
2022-10-25T18:59:57.852Z,29.40
2022-10-25T19:02:27.395Z,27.50
2022-10-25T19:04:55.517Z,28.13
2022-10-25T19:07:23.532Z,26.90
2022-10-25T19:09:51.557Z,28.20
2022-10-25T19:12:19.523Z,26.83
2022-10-25T19:17:22.594Z,26.90
2022-10-25T19:19:51.952Z,24.77
2022-10-25T19:22:19.957Z,24.93
2022-10-25T19:24:48.640Z,27.77
2022-10-25T19:27:17.117Z,25.53
2022-10-25T19:29:45.093Z,28.17
2022-10-25T19:32:13.302Z,28.77
2022-10-25T19:34:41.376Z,28.87
2022-10-25T19:37:11.106Z,31.27
2022-10-25T19:39:39.631Z,29.40
2022-10-25T19:42:08.017Z,31.43
2022-10-25T19:44:36.017Z,28.83
2022-10-25T19:47:04.026Z,31.87
2022-10-25T19:49:32.061Z,32.27
2022-10-25T19:52:00.045Z,32.50
2022-10-25T19:54:29.472Z,32.07
2022-10-25T19:56:57.558Z,33.77
2022-10-25T19:59:25.545Z,34.50
2022-10-25T20:01:53.709Z,29.80
2022-10-25T20:04:21.924Z,30.90
2022-10-25T20:06:49.935Z,30.57
2022-10-25T20:09:17.974Z,29.30
2022-10-25T20:11:47.369Z,29.33
2022-10-25T20:14:18.112Z,29.20
2022-10-25T20:16:46.100Z,27.43
2022-10-25T20:19:14.848Z,29.30
2022-10-25T20:21:42.883Z,26.70
2022-10-25T20:24:11.358Z,27.07
2022-10-25T20:26:44.746Z,26.57
2022-10-25T20:29:21.066Z,26.67
2022-10-25T20:31:50.160Z,26.20
2022-10-25T20:34:18.479Z,27.10
2022-10-25T20:36:46.502Z,24.47
2022-10-25T20:39:15.153Z,25.37
2022-10-25T20:41:43.216Z,25.80
2022-10-25T20:44:11.584Z,30.53
2022-10-25T20:46:40.995Z,24.07
2022-10-25T20:49:08.955Z,24.63
2022-10-25T20:51:37.966Z,24.10
2022-10-25T20:54:09.490Z,23.93
2022-10-25T20:56:39.227Z,24.93
2022-10-25T20:59:07.806Z,24.70
2022-10-25T21:01:36.163Z,25.07
2022-10-25T21:04:06.174Z,25.33
2022-10-25T21:06:34.164Z,24.40
2022-10-25T21:09:02.287Z,27.27
2022-10-25T21:11:30.327Z,25.63
2022-10-25T21:13:58.377Z,26.87
2022-10-25T21:16:26.377Z,26.97
2022-10-25T21:18:54.334Z,26.17
2022-10-25T21:21:23.662Z,28.93
2022-10-25T21:23:55.958Z,26.70
2022-10-25T21:26:24.578Z,28.10
2022-10-25T21:28:52.568Z,26.40
2022-10-25T21:31:20.564Z,28.10
2022-10-25T21:33:51.298Z,29.37
2022-10-25T21:36:21.544Z,29.80
2022-10-25T21:38:50.904Z,30.57
2022-10-25T21:41:20.683Z,33.77
2022-10-25T21:43:50.650Z,33.63
2022-10-25T21:46:21.865Z,32.70
2022-10-25T21:48:51.006Z,34.73
2022-10-25T21:51:19.496Z,32.43
2022-10-25T21:53:47.753Z,32.73
2022-10-25T21:56:18.931Z,32.57
2022-10-25T21:58:48.913Z,33.97
2022-10-25T22:01:19.218Z,34.03
2022-10-25T22:03:47.591Z,32.57
2022-10-25T22:06:18.145Z,34.77
2022-10-25T22:08:46.564Z,35.50
2022-10-25T22:11:18.577Z,34.97
2022-10-25T22:13:47.369Z,34.87
2022-10-25T22:16:16.963Z,35.13
2022-10-25T22:18:49.813Z,35.40
2022-10-25T22:21:17.905Z,36.47
2022-10-25T22:23:45.878Z,37.50
2022-10-25T22:26:15.947Z,36.80
2022-10-25T22:28:45.497Z,36.33
2022-10-25T22:31:15.227Z,36.60
2022-10-25T22:33:49.174Z,36.60
2022-10-25T22:36:19.121Z,38.50
2022-10-25T22:38:47.924Z,37.07
2022-10-25T22:41:17.913Z,37.20
2022-10-25T22:43:48.061Z,36.50
2022-10-25T22:46:20.118Z,36.00
2022-10-25T22:48:48.101Z,35.57
2022-10-25T22:51:16.778Z,35.90
2022-10-25T22:53:45.087Z,35.07
2022-10-25T22:56:15.187Z,32.90
2022-10-25T22:58:48.034Z,33.10
2022-10-25T23:01:19.158Z,34.00
2022-10-25T23:03:49.735Z,33.50
2022-10-25T23:06:20.164Z,34.67
2022-10-25T23:08:48.257Z,34.67
2022-10-25T23:11:22.553Z,34.53
2022-10-25T23:13:50.791Z,33.17
2022-10-25T23:16:21.149Z,33.10
2022-10-25T23:18:49.263Z,34.70
2022-10-25T23:21:19.109Z,33.07
2022-10-25T23:23:48.052Z,36.20
2022-10-25T23:26:20.428Z,32.97
2022-10-25T23:28:48.653Z,34.63
2022-10-25T23:31:17.077Z,33.27
2022-10-25T23:33:48.410Z,32.50
2022-10-25T23:36:19.391Z,31.03
2022-10-25T23:38:48.032Z,31.37
2022-10-25T23:41:16.777Z,32.07
2022-10-25T23:43:44.817Z,28.97
2022-10-25T23:46:13.352Z,29.27
2022-10-25T23:48:41.665Z,28.77
2022-10-25T23:51:12.984Z,30.03
2022-10-25T23:53:41.519Z,30.20
2022-10-25T23:56:12.725Z,32.20
2022-10-25T23:58:43.403Z,29.93
